createdAt,value
2022-11-12T00:00:19.562Z,4.47
2022-11-12T00:02:22.423Z,4.60
2022-11-12T00:04:25.273Z,6.77
2022-11-12T00:06:28.069Z,4.90
2022-11-12T00:08:32.295Z,4.23
2022-11-12T00:10:35.175Z,5.40
2022-11-12T00:12:38.000Z,6.30
2022-11-12T00:14:40.832Z,5.70
2022-11-12T00:16:43.681Z,3.63
2022-11-12T00:18:48.184Z,5.03
2022-11-12T00:20:51.024Z,5.77
2022-11-12T00:22:53.878Z,6.97
2022-11-12T00:24:58.091Z,6.37
2022-11-12T00:27:00.952Z,6.10
2022-11-12T00:29:03.976Z,5.63
2022-11-12T00:31:12.037Z,6.33
2022-11-12T00:33:14.907Z,6.63
2022-11-12T00:35:17.823Z,4.70
2022-11-12T00:37:23.069Z,5.90
2022-11-12T00:39:25.960Z,4.20
2022-11-12T00:41:30.123Z,7.40
2022-11-12T00:43:33.013Z,4.67
2022-11-12T00:45:35.785Z,6.93
2022-11-12T00:47:38.609Z,4.67
2022-11-12T00:49:41.392Z,5.17
2022-11-12T00:51:44.622Z,5.93
2022-11-12T00:53:49.027Z,6.33
2022-11-12T00:55:51.825Z,9.23
2022-11-12T00:57:55.966Z,10.17
2022-11-12T00:59:58.851Z,6.73
2022-11-12T01:02:01.679Z,6.93
2022-11-12T01:04:04.730Z,7.17
2022-11-12T01:06:09.061Z,6.43
2022-11-12T01:08:11.899Z,6.07
2022-11-12T01:10:16.217Z,6.23
2022-11-12T01:12:19.066Z,11.53
2022-11-12T01:14:23.266Z,10.20
2022-11-12T01:16:28.829Z,11.33
2022-11-12T01:18:31.608Z,9.07
2022-11-12T01:20:34.446Z,13.20
2022-11-12T01:22:37.332Z,9.37
2022-11-12T01:24:40.246Z,8.27
2022-11-12T01:26:43.326Z,10.83
2022-11-12T01:28:46.359Z,11.00
2022-11-12T01:30:50.507Z,8.73
2022-11-12T01:32:53.293Z,17.03
2022-11-12T01:34:56.365Z,22.47
2022-11-12T01:36:59.202Z,26.87
2022-11-12T01:39:12.554Z,26.77
2022-11-12T01:41:17.719Z,24.10
2022-11-12T01:43:20.535Z,29.50
2022-11-12T01:45:23.323Z,27.73
2022-11-12T01:47:31.231Z,23.60
2022-11-12T01:49:40.576Z,19.27
2022-11-12T01:51:47.481Z,19.53
2022-11-12T01:53:55.297Z,22.07
2022-11-12T01:55:59.501Z,14.10
2022-11-12T01:58:09.522Z,18.47
2022-11-12T02:00:14.520Z,23.00
2022-11-12T02:02:17.437Z,15.00
2022-11-12T02:04:22.678Z,12.40
2022-11-12T02:06:26.046Z,11.23
2022-11-12T02:08:30.147Z,9.50
2022-11-12T02:10:33.060Z,9.17
2022-11-12T02:12:54.829Z,7.87
2022-11-12T02:14:57.688Z,7.10
2022-11-12T02:17:01.952Z,6.73
2022-11-12T02:19:07.233Z,5.40
2022-11-12T02:21:11.458Z,5.07
2022-11-12T02:23:15.597Z,6.17
2022-11-12T02:25:20.679Z,4.23
2022-11-12T02:27:25.109Z,3.43
2022-11-12T02:29:27.900Z,3.87
2022-11-12T02:31:30.866Z,2.93
2022-11-12T02:33:33.649Z,4.87
2022-11-12T02:35:36.519Z,3.50
2022-11-12T02:37:39.362Z,3.83
2022-11-12T02:39:43.515Z,2.60
2022-11-12T02:41:46.308Z,4.43
2022-11-12T02:43:49.152Z,6.53
2022-11-12T02:45:52.065Z,5.63
2022-11-12T02:47:55.038Z,3.50
2022-11-12T02:49:57.866Z,5.23
2022-11-12T02:52:00.663Z,5.20
2022-11-12T02:54:03.606Z,4.77
2022-11-12T02:56:08.594Z,2.90
2022-11-12T02:58:11.757Z,3.40
2022-11-12T03:00:14.992Z,6.03
2022-11-12T03:02:17.806Z,9.23
2022-11-12T03:04:20.618Z,4.60
2022-11-12T03:06:23.479Z,4.87
2022-11-12T03:08:27.053Z,4.60
2022-11-12T03:10:30.588Z,5.07
2022-11-12T03:12:35.067Z,2.93
2022-11-12T03:14:37.885Z,4.63
2022-11-12T03:16:40.754Z,4.40
2022-11-12T03:18:43.655Z,3.20
2022-11-12T03:20:46.470Z,5.77
2022-11-12T03:22:57.746Z,4.57
2022-11-12T03:25:00.601Z,5.57
2022-11-12T03:27:03.421Z,3.03
2022-11-12T03:29:07.593Z,4.90
2022-11-12T03:31:13.022Z,4.57
2022-11-12T03:33:17.145Z,3.00
2022-11-12T03:35:20.113Z,2.93
2022-11-12T03:37:22.948Z,4.87
2022-11-12T03:39:25.795Z,3.37
2022-11-12T03:41:28.611Z,3.67
2022-11-12T03:43:31.439Z,3.73
2022-11-12T03:45:35.570Z,4.37
2022-11-12T03:47:41.211Z,5.20
2022-11-12T03:49:44.007Z,5.30
2022-11-12T03:51:46.844Z,5.20
2022-11-12T03:53:49.695Z,3.63
2022-11-12T03:55:52.510Z,3.80
2022-11-12T03:57:56.934Z,4.97
2022-11-12T03:59:59.752Z,5.90
2022-11-12T04:02:04.015Z,4.00
2022-11-12T04:04:06.797Z,5.13
2022-11-12T04:06:29.845Z,5.13
2022-11-12T04:08:37.643Z,6.13
2022-11-12T04:10:40.568Z,5.33
2022-11-12T04:13:00.795Z,6.50
2022-11-12T04:15:03.645Z,4.93
2022-11-12T04:17:25.371Z,5.87
2022-11-12T04:19:45.857Z,4.07
2022-11-12T04:21:54.774Z,5.00
2022-11-12T04:23:57.747Z,4.67
2022-11-12T04:26:18.188Z,4.00
2022-11-12T04:28:21.036Z,4.57
2022-11-12T04:30:22.917Z,6.07
2022-11-12T04:32:27.488Z,3.20
2022-11-12T04:34:29.369Z,5.53
2022-11-12T04:36:32.257Z,3.57
2022-11-12T04:38:35.074Z,7.40
2022-11-12T04:40:55.646Z,6.37
2022-11-12T04:43:16.069Z,5.80
2022-11-12T04:45:18.972Z,5.23
2022-11-12T04:47:21.876Z,5.70
2022-11-12T04:49:26.163Z,5.90
2022-11-12T04:51:46.396Z,5.97
2022-11-12T04:53:49.182Z,4.03
2022-11-12T04:55:52.316Z,6.37
2022-11-12T04:58:00.349Z,4.67
2022-11-12T05:00:04.855Z,4.57
2022-11-12T05:02:07.780Z,6.83
2022-11-12T05:04:10.607Z,5.17
2022-11-12T05:06:28.702Z,5.90
2022-11-12T05:08:31.598Z,8.37
2022-11-12T05:10:34.490Z,6.20
2022-11-12T05:12:37.632Z,6.97
2022-11-12T05:14:40.507Z,6.43
2022-11-12T05:16:43.437Z,10.00
2022-11-12T05:18:46.281Z,5.53
2022-11-12T05:20:51.277Z,6.13
2022-11-12T05:23:06.154Z,5.50
2022-11-12T05:25:10.641Z,7.20
2022-11-12T05:27:16.606Z,5.53
2022-11-12T05:29:19.644Z,7.50
2022-11-12T05:31:22.458Z,5.30
2022-11-12T05:33:25.352Z,5.90
2022-11-12T05:35:28.146Z,6.50
2022-11-12T05:37:30.949Z,7.67
2022-11-12T05:39:35.323Z,6.00
2022-11-12T05:42:05.942Z,6.87
2022-11-12T05:44:01.061Z,8.00
2022-11-12T05:46:04.877Z,7.83
2022-11-12T05:48:08.236Z,9.40
2022-11-12T05:50:11.182Z,9.13
2022-11-12T05:52:14.007Z,7.00
2022-11-12T05:54:17.095Z,8.43
2022-11-12T05:56:21.343Z,5.17
2022-11-12T05:58:24.518Z,7.60
2022-11-12T06:00:27.662Z,9.60
2022-11-12T06:02:30.572Z,8.83
2022-11-12T06:04:33.406Z,8.90
2022-11-12T06:06:36.300Z,10.60
2022-11-12T06:08:39.276Z,9.77
2022-11-12T06:10:42.108Z,9.97
2022-11-12T06:12:46.282Z,39.20
2022-11-12T06:14:49.112Z,27.60
2022-11-12T06:16:51.926Z,35.53
2022-11-12T06:18:54.747Z,22.10
2022-11-12T06:21:22.421Z,17.53
2022-11-12T06:23:25.265Z,17.87
2022-11-12T06:25:28.421Z,10.43
2022-11-12T06:27:31.330Z,9.23
2022-11-12T06:29:35.561Z,6.47
2022-11-12T06:31:38.374Z,6.30
2022-11-12T06:33:41.880Z,8.13
2022-11-12T06:35:44.790Z,7.50
2022-11-12T06:37:48.408Z,7.73
2022-11-12T06:39:51.231Z,6.57
2022-11-12T06:41:54.851Z,6.73
2022-11-12T06:43:57.646Z,8.03
2022-11-12T06:46:02.801Z,10.33
2022-11-12T06:48:05.663Z,6.67
2022-11-12T06:50:08.994Z,6.57
2022-11-12T06:52:16.380Z,6.60
2022-11-12T06:54:19.605Z,6.73
2022-11-12T06:56:22.474Z,6.83
2022-11-12T06:58:25.655Z,8.30
2022-11-12T07:00:28.663Z,8.40
2022-11-12T07:02:32.833Z,6.27
2022-11-12T07:04:35.660Z,16.33
2022-11-12T07:06:39.059Z,24.47
2022-11-12T07:08:42.527Z,23.33
2022-11-12T07:10:45.368Z,19.47
2022-11-12T07:12:53.170Z,13.60
2022-11-12T07:14:56.363Z,12.07
2022-11-12T07:16:59.165Z,10.17
2022-11-12T07:19:03.450Z,8.63
2022-11-12T07:21:08.132Z,9.50
2022-11-12T07:23:10.943Z,10.97
2022-11-12T07:25:13.771Z,10.53
2022-11-12T07:27:16.648Z,9.93
2022-11-12T07:29:35.663Z,14.97
2022-11-12T07:31:42.378Z,13.43
2022-11-12T07:33:46.031Z,12.87
2022-11-12T07:35:50.197Z,12.23
2022-11-12T07:37:59.444Z,13.70
2022-11-12T07:40:03.531Z,13.80
2022-11-12T07:42:06.768Z,13.67
2022-11-12T07:44:09.608Z,12.07
2022-11-12T07:46:14.008Z,14.17
2022-11-12T07:48:16.823Z,12.63
2022-11-12T07:50:19.670Z,12.77
2022-11-12T07:52:23.982Z,10.07
2022-11-12T07:54:26.819Z,12.23
2022-11-12T07:56:30.260Z,10.43
2022-11-12T07:58:34.994Z,10.27
2022-11-12T08:00:37.840Z,10.00
2022-11-12T08:02:40.638Z,8.53
2022-11-12T08:04:43.437Z,8.77
2022-11-12T08:06:46.428Z,9.90
2022-11-12T08:08:53.152Z,11.77
2022-11-12T08:10:57.494Z,9.97
2022-11-12T08:13:00.380Z,10.70
2022-11-12T08:15:03.190Z,10.43
2022-11-12T08:17:06.195Z,12.03
2022-11-12T08:19:09.011Z,10.13
2022-11-12T08:21:14.566Z,11.60
2022-11-12T08:23:17.389Z,9.10
2022-11-12T08:25:21.683Z,10.73
2022-11-12T08:27:24.589Z,9.97
2022-11-12T08:29:27.419Z,8.83
2022-11-12T08:31:30.259Z,10.17
2022-11-12T08:33:33.147Z,9.90
2022-11-12T08:35:39.288Z,11.37
2022-11-12T08:37:42.160Z,8.73
2022-11-12T08:39:44.928Z,10.23
2022-11-12T08:41:49.088Z,8.50
2022-11-12T08:43:51.896Z,8.70
2022-11-12T08:45:54.968Z,6.13
2022-11-12T08:48:00.591Z,6.73
2022-11-12T08:50:03.425Z,10.80
2022-11-12T08:52:06.406Z,8.43
2022-11-12T08:54:09.325Z,8.47
2022-11-12T08:56:12.163Z,8.90
2022-11-12T08:58:16.361Z,13.63
2022-11-12T09:00:19.859Z,9.13
2022-11-12T09:02:22.775Z,10.03
2022-11-12T09:04:25.799Z,8.67
2022-11-12T09:06:28.679Z,6.30
2022-11-12T09:08:34.107Z,8.20
2022-11-12T09:10:37.622Z,7.37
2022-11-12T09:12:40.436Z,7.43
2022-11-12T09:14:44.587Z,8.90
2022-11-12T09:16:47.401Z,7.23
2022-11-12T09:18:50.178Z,9.87
2022-11-12T09:20:52.967Z,8.33
2022-11-12T09:22:58.947Z,8.03
2022-11-12T09:25:01.748Z,7.33
2022-11-12T09:27:04.675Z,8.87
2022-11-12T09:29:07.482Z,9.93
2022-11-12T09:31:11.869Z,7.10
2022-11-12T09:33:14.953Z,11.33
2022-11-12T09:35:17.982Z,8.27
2022-11-12T09:37:20.821Z,8.00
2022-11-12T09:39:23.633Z,8.97
2022-11-12T09:41:30.757Z,7.50
2022-11-12T09:43:37.078Z,19.63
2022-11-12T09:45:43.902Z,31.73
2022-11-12T09:47:58.959Z,15.73
2022-11-12T09:50:11.886Z,10.07
2022-11-12T09:52:20.398Z,8.23
2022-11-12T09:54:25.980Z,9.83
2022-11-12T09:56:29.807Z,8.93
2022-11-12T09:58:32.643Z,9.77
2022-11-12T10:00:36.911Z,12.57
2022-11-12T10:02:50.376Z,9.93
2022-11-12T10:05:10.848Z,9.70
2022-11-12T10:07:22.118Z,6.67
2022-11-12T10:09:29.647Z,5.87
2022-11-12T10:12:09.671Z,6.27
2022-11-12T10:14:23.392Z,8.10
2022-11-12T10:16:43.559Z,7.07
2022-11-12T10:19:19.052Z,12.03
2022-11-12T10:21:31.198Z,21.67
2022-11-12T10:23:40.737Z,18.83
2022-11-12T10:25:45.566Z,14.93
2022-11-12T10:27:50.207Z,14.00
2022-11-12T10:30:00.237Z,13.17
2022-11-12T10:32:03.556Z,14.70
2022-11-12T10:34:19.135Z,15.80
2022-11-12T10:36:29.738Z,16.20
2022-11-12T10:38:34.614Z,16.50
2022-11-12T10:40:40.095Z,18.67
2022-11-12T10:42:57.857Z,14.20
2022-11-12T10:45:20.851Z,13.17
2022-11-12T10:47:27.967Z,15.27
2022-11-12T10:49:30.840Z,9.50
2022-11-12T10:51:36.743Z,8.60
2022-11-12T10:54:05.314Z,5.60
2022-11-12T10:56:26.698Z,5.47
2022-11-12T10:58:29.901Z,5.13
2022-11-12T11:00:33.269Z,4.50
2022-11-12T11:02:36.253Z,4.63
2022-11-12T11:04:39.410Z,3.90
2022-11-12T11:06:43.741Z,6.77
2022-11-12T11:08:48.950Z,6.57
2022-11-12T11:11:15.476Z,5.07
2022-11-12T11:13:23.630Z,4.93
2022-11-12T11:15:26.428Z,3.77
2022-11-12T11:17:29.212Z,6.23
2022-11-12T11:19:36.934Z,5.07
2022-11-12T11:21:58.709Z,5.27
2022-11-12T11:24:15.406Z,6.17
2022-11-12T11:26:31.923Z,5.63
2022-11-12T11:28:41.526Z,5.30
2022-11-12T11:30:53.019Z,5.90
2022-11-12T11:33:25.534Z,4.67
2022-11-12T11:35:35.910Z,7.30
2022-11-12T11:37:48.443Z,3.63
2022-11-12T11:40:01.942Z,4.87
2022-11-12T11:42:18.387Z,5.13
2022-11-12T11:44:31.729Z,4.20
2022-11-12T11:46:56.003Z,4.27
2022-11-12T11:49:25.239Z,2.93
2022-11-12T11:51:42.075Z,6.23
2022-11-12T11:53:52.951Z,2.80
2022-11-12T11:55:58.745Z,2.80
2022-11-12T11:58:12.122Z,4.70
2022-11-12T12:00:20.774Z,2.43
2022-11-12T12:02:47.299Z,14.30
2022-11-12T12:04:52.726Z,2.90
2022-11-12T12:07:09.334Z,3.10
2022-11-12T12:09:29.456Z,2.27
2022-11-12T12:11:39.902Z,3.30
2022-11-12T12:13:56.199Z,4.00
2022-11-12T12:16:18.645Z,2.60
2022-11-12T12:18:32.958Z,2.43
2022-11-12T12:20:44.785Z,3.53
2022-11-12T12:22:52.349Z,2.73
2022-11-12T12:25:02.362Z,2.80
2022-11-12T12:27:11.554Z,2.30
2022-11-12T12:29:18.843Z,4.03
2022-11-12T12:31:28.163Z,1.63
2022-11-12T12:33:36.712Z,3.63
2022-11-12T12:35:48.346Z,2.97
2022-11-12T12:37:58.366Z,5.43
2022-11-12T12:40:06.794Z,3.07
2022-11-12T12:42:17.121Z,3.50
2022-11-12T12:44:19.927Z,4.90
2022-11-12T12:46:25.847Z,4.60
2022-11-12T12:48:31.234Z,3.07
2022-11-12T12:50:34.729Z,8.30
2022-11-12T12:53:06.216Z,5.63
2022-11-12T12:55:35.828Z,8.33
2022-11-12T12:57:40.552Z,5.87
2022-11-12T12:59:43.422Z,2.60
2022-11-12T13:01:57.003Z,3.47
2022-11-12T13:04:02.241Z,6.93
2022-11-12T13:06:09.507Z,3.73
2022-11-12T13:08:15.531Z,7.77
2022-11-12T13:10:51.134Z,13.13
2022-11-12T13:13:04.917Z,16.50
2022-11-12T13:15:14.965Z,8.20
2022-11-12T13:17:58.412Z,5.53
2022-11-12T13:20:35.271Z,6.40
2022-11-12T13:22:51.995Z,3.50
2022-11-12T13:25:06.704Z,3.80
2022-11-12T13:27:10.875Z,5.47
2022-11-12T13:29:43.207Z,4.33
2022-11-12T13:31:46.093Z,2.17
2022-11-12T13:33:50.024Z,4.27
2022-11-12T13:35:52.977Z,3.53
2022-11-12T13:37:57.978Z,3.17
2022-11-12T13:40:04.316Z,18.17
2022-11-12T13:42:32.554Z,14.80
2022-11-12T13:44:36.661Z,7.47
2022-11-12T13:46:39.550Z,8.63
2022-11-12T13:48:45.855Z,5.97
2022-11-12T13:50:54.925Z,34.87
2022-11-12T13:52:58.101Z,52.20
2022-11-12T13:55:05.205Z,19.73
2022-11-12T13:57:27.488Z,31.57
2022-11-12T13:59:30.317Z,39.07
2022-11-12T14:01:33.763Z,29.20
2022-11-12T14:03:43.271Z,6.27
2022-11-12T14:05:49.619Z,7.77
2022-11-12T14:08:05.983Z,8.30
2022-11-12T14:10:19.592Z,20.53
2022-11-12T14:12:43.893Z,41.23
2022-11-12T14:15:04.688Z,15.30
2022-11-12T14:17:23.202Z,8.83
2022-11-12T14:20:04.985Z,7.77
2022-11-12T14:22:16.394Z,8.40
2022-11-12T14:24:19.323Z,10.63
2022-11-12T14:26:35.807Z,8.67
2022-11-12T14:28:40.289Z,7.63
2022-11-12T14:30:45.773Z,7.03
2022-11-12T14:32:51.021Z,8.33
2022-11-12T14:34:53.869Z,6.97
2022-11-12T14:36:57.438Z,5.83
2022-11-12T14:39:00.656Z,7.60
2022-11-12T14:41:08.876Z,10.23
2022-11-12T14:43:27.635Z,11.37
2022-11-12T14:45:35.451Z,8.57
2022-11-12T14:47:38.442Z,8.90
2022-11-12T14:49:44.711Z,22.97
2022-11-12T14:51:50.039Z,15.13
2022-11-12T14:53:57.741Z,20.03
2022-11-12T14:56:04.345Z,170.47
2022-11-12T14:58:07.674Z,105.73
2022-11-12T15:00:22.800Z,81.00
2022-11-12T15:02:47.284Z,38.73
2022-11-12T15:05:02.907Z,8.93
2022-11-12T15:07:06.360Z,6.73
2022-11-12T15:09:09.332Z,7.10
2022-11-12T15:11:25.802Z,7.53
2022-11-12T15:13:29.217Z,4.83
2022-11-12T15:15:33.744Z,5.30
2022-11-12T15:17:39.010Z,5.70
2022-11-12T15:19:43.303Z,8.00
2022-11-12T15:21:48.236Z,7.27
2022-11-12T15:23:53.115Z,8.07
2022-11-12T15:26:00.283Z,7.27
2022-11-12T15:28:22.134Z,10.10
2022-11-12T15:30:28.620Z,9.67
2022-11-12T15:32:36.731Z,9.43
2022-11-12T15:34:48.277Z,9.83
2022-11-12T15:36:51.427Z,8.33
2022-11-12T15:38:55.242Z,14.30
2022-11-12T15:40:58.492Z,19.33
2022-11-12T15:43:02.940Z,11.80
2022-11-12T15:45:14.673Z,13.33
2022-11-12T15:47:22.430Z,12.33
2022-11-12T15:49:26.578Z,9.13
2022-11-12T15:51:29.447Z,9.00
2022-11-12T15:53:32.286Z,10.63
2022-11-12T15:55:36.010Z,9.93
2022-11-12T15:57:43.601Z,11.53
2022-11-12T15:59:49.070Z,8.67
2022-11-12T16:01:51.894Z,11.27
2022-11-12T16:03:54.706Z,10.40
2022-11-12T16:06:01.458Z,13.20
2022-11-12T16:08:08.576Z,18.80
2022-11-12T16:10:14.356Z,17.20
2022-11-12T16:12:17.407Z,12.43
2022-11-12T16:14:24.642Z,10.37
2022-11-12T16:16:27.932Z,13.73
2022-11-12T16:18:30.760Z,13.17
2022-11-12T16:20:35.385Z,10.00
2022-11-12T16:22:39.624Z,11.77
2022-11-12T16:24:43.106Z,10.57
2022-11-12T16:26:46.148Z,10.70
2022-11-12T16:28:48.986Z,13.03
2022-11-12T16:30:51.817Z,14.10
2022-11-12T16:32:54.921Z,14.07
2022-11-12T16:35:01.062Z,14.60
2022-11-12T16:37:04.472Z,14.70
2022-11-12T16:39:12.702Z,15.63
2022-11-12T16:41:16.260Z,13.30
2022-11-12T16:43:19.100Z,14.33
2022-11-12T16:45:23.859Z,10.93
2022-11-12T16:47:26.761Z,13.73
2022-11-12T16:49:33.194Z,13.83
2022-11-12T16:51:38.708Z,11.47
2022-11-12T16:53:41.556Z,15.17
2022-11-12T16:55:46.194Z,13.10
2022-11-12T16:57:49.015Z,13.60
2022-11-12T16:59:51.808Z,14.97
2022-11-12T17:01:54.707Z,11.00
2022-11-12T17:03:59.128Z,12.27
2022-11-12T17:06:03.055Z,13.90
2022-11-12T17:08:05.990Z,10.37
2022-11-12T17:10:10.031Z,10.03
2022-11-12T17:12:14.192Z,11.17
2022-11-12T17:14:18.369Z,14.83
2022-11-12T17:16:21.168Z,12.17
2022-11-12T17:18:24.007Z,9.83
2022-11-12T17:20:27.004Z,12.57
2022-11-12T17:22:30.130Z,11.17
2022-11-12T17:24:32.961Z,11.10
2022-11-12T17:26:35.743Z,11.73
2022-11-12T17:28:40.252Z,11.07
2022-11-12T17:30:43.121Z,10.00
2022-11-12T17:32:45.918Z,9.70
2022-11-12T17:34:48.735Z,10.90
2022-11-12T17:36:51.623Z,12.70
2022-11-12T17:38:55.446Z,10.67
2022-11-12T17:40:58.355Z,19.30
2022-11-12T17:43:01.113Z,12.17
2022-11-12T17:45:06.004Z,11.57
2022-11-12T17:47:08.788Z,16.80
2022-11-12T17:49:11.701Z,13.37
2022-11-12T17:51:16.633Z,17.03
2022-11-12T17:53:19.849Z,14.40
2022-11-12T17:55:22.647Z,16.27
2022-11-12T17:57:25.469Z,18.73
2022-11-12T17:59:28.272Z,15.03
2022-11-12T18:01:34.271Z,12.37
2022-11-12T18:03:39.698Z,13.27
2022-11-12T18:05:42.527Z,10.93
2022-11-12T18:07:45.338Z,12.07
2022-11-12T18:09:48.184Z,13.13
2022-11-12T18:11:54.091Z,12.13
2022-11-12T18:13:57.226Z,13.80
2022-11-12T18:16:01.155Z,15.87
2022-11-12T18:18:05.634Z,14.43
2022-11-12T18:20:09.707Z,19.20
2022-11-12T18:22:14.976Z,19.93
2022-11-12T18:24:18.060Z,22.97
2022-11-12T18:26:21.569Z,23.77
2022-11-12T18:28:24.372Z,26.27
2022-11-12T18:30:27.245Z,25.80
2022-11-12T18:32:30.076Z,21.57
2022-11-12T18:34:34.495Z,18.40
2022-11-12T18:36:37.789Z,19.50
2022-11-12T18:38:42.212Z,16.37
2022-11-12T18:40:45.169Z,18.03
2022-11-12T18:42:48.132Z,18.40
2022-11-12T18:44:50.968Z,15.73
2022-11-12T18:46:54.028Z,15.33
2022-11-12T18:48:56.906Z,14.53
2022-11-12T18:51:02.287Z,14.10
2022-11-12T18:53:05.300Z,15.50
2022-11-12T18:55:09.158Z,17.30
2022-11-12T18:57:11.958Z,15.50
2022-11-12T18:59:16.300Z,11.70
2022-11-12T19:01:21.624Z,23.97
2022-11-12T19:03:24.795Z,21.97
2022-11-12T19:05:27.811Z,25.10
2022-11-12T19:07:32.004Z,21.60
2022-11-12T19:09:34.826Z,21.90
2022-11-12T19:11:37.761Z,31.20
2022-11-12T19:13:41.106Z,44.83
2022-11-12T19:15:43.912Z,38.00
2022-11-12T19:17:46.771Z,37.40
2022-11-12T19:19:49.584Z,43.20
2022-11-12T19:21:52.393Z,46.50
2022-11-12T19:23:57.497Z,45.67
2022-11-12T19:26:01.596Z,48.97
2022-11-12T19:28:04.629Z,42.60
2022-11-12T19:30:08.816Z,43.33
2022-11-12T19:32:12.892Z,40.67
2022-11-12T19:34:15.721Z,24.47
2022-11-12T19:36:21.892Z,20.67
2022-11-12T19:38:25.011Z,20.00
2022-11-12T19:40:29.588Z,32.20
2022-11-12T19:42:32.448Z,32.43
2022-11-12T19:44:35.383Z,36.40
2022-11-12T19:46:38.206Z,27.77
2022-11-12T19:48:41.024Z,28.87
2022-11-12T19:50:43.887Z,26.93
2022-11-12T19:52:46.768Z,24.60
2022-11-12T19:54:49.600Z,23.90
2022-11-12T19:56:53.776Z,22.63
2022-11-12T19:58:56.760Z,20.30
2022-11-12T20:01:05.225Z,22.03
2022-11-12T20:03:08.183Z,21.07
2022-11-12T20:05:11.192Z,94.70
2022-11-12T20:07:14.058Z,51.47
2022-11-12T20:09:17.312Z,27.77
2022-11-12T20:11:20.508Z,16.93
2022-11-12T20:13:24.687Z,14.67
2022-11-12T20:15:27.486Z,13.07
2022-11-12T20:17:33.166Z,14.37
2022-11-12T20:19:35.988Z,13.90
2022-11-12T20:21:38.798Z,16.77
2022-11-12T20:23:43.021Z,14.93
2022-11-12T20:25:45.898Z,12.87
2022-11-12T20:27:48.723Z,12.90
2022-11-12T20:29:52.923Z,14.57
2022-11-12T20:31:55.716Z,18.53
2022-11-12T20:33:58.571Z,19.73
2022-11-12T20:36:06.075Z,18.77
2022-11-12T20:38:08.934Z,23.73
2022-11-12T20:40:11.863Z,23.37
2022-11-12T20:42:14.701Z,20.87
2022-11-12T20:44:18.045Z,23.83
2022-11-12T20:46:22.854Z,22.60
2022-11-12T20:48:26.360Z,21.80
2022-11-12T20:50:29.571Z,24.97
2022-11-12T20:52:32.497Z,26.17
2022-11-12T20:54:35.369Z,35.70
2022-11-12T20:56:38.219Z,38.70
2022-11-12T20:58:41.492Z,37.60
2022-11-12T21:00:44.632Z,37.17
2022-11-12T21:02:48.782Z,30.73
2022-11-12T21:04:53.927Z,31.53
2022-11-12T21:06:59.739Z,29.67
2022-11-12T21:09:06.791Z,33.63
2022-11-12T21:11:12.069Z,31.47
2022-11-12T21:13:15.982Z,28.27
2022-11-12T21:15:18.932Z,27.37
2022-11-12T21:17:21.753Z,26.57
2022-11-12T21:19:25.883Z,26.37
2022-11-12T21:21:31.582Z,27.97
2022-11-12T21:23:36.972Z,44.13
2022-11-12T21:25:40.822Z,54.03
2022-11-12T21:27:43.662Z,38.17
2022-11-12T21:29:46.454Z,37.07
2022-11-12T21:31:49.348Z,35.80
2022-11-12T21:33:52.574Z,31.83
2022-11-12T21:35:57.566Z,29.20
2022-11-12T21:38:00.351Z,29.27
2022-11-12T21:40:03.179Z,28.03
2022-11-12T21:42:06.223Z,32.13
2022-11-12T21:44:09.217Z,28.87
2022-11-12T21:46:15.108Z,29.87
2022-11-12T21:48:18.428Z,31.23
2022-11-12T21:50:21.789Z,27.27
2022-11-12T21:52:26.149Z,30.90
2022-11-12T21:54:28.946Z,27.50
2022-11-12T21:56:33.337Z,29.00
2022-11-12T21:58:36.355Z,28.30
2022-11-12T22:00:41.899Z,29.33
2022-11-12T22:02:45.318Z,27.20
2022-11-12T22:04:48.122Z,31.63
2022-11-12T22:06:51.009Z,30.30
2022-11-12T22:08:56.516Z,32.07
2022-11-12T22:11:04.672Z,29.47
2022-11-12T22:13:26.010Z,30.20
2022-11-12T22:15:29.958Z,32.27
2022-11-12T22:17:34.182Z,27.57
2022-11-12T22:19:38.896Z,29.63
2022-11-12T22:21:41.722Z,28.50
2022-11-12T22:23:44.545Z,27.23
2022-11-12T22:25:50.572Z,28.87
2022-11-12T22:27:53.466Z,27.80
2022-11-12T22:29:56.275Z,27.73
2022-11-12T22:31:59.074Z,26.90
2022-11-12T22:34:03.141Z,23.63
2022-11-12T22:36:08.829Z,24.43
2022-11-12T22:38:11.653Z,24.13
2022-11-12T22:40:14.505Z,21.03
2022-11-12T22:42:18.675Z,21.03
2022-11-12T22:44:21.487Z,22.93
2022-11-12T22:46:26.723Z,21.67
2022-11-12T22:48:29.904Z,21.57
2022-11-12T22:50:32.965Z,18.97
2022-11-12T22:52:35.828Z,26.90
2022-11-12T22:54:38.667Z,19.50
2022-11-12T22:56:41.467Z,19.60
2022-11-12T22:58:47.050Z,22.03
2022-11-12T23:00:49.849Z,18.70
2022-11-12T23:02:52.658Z,22.47
2022-11-12T23:04:55.437Z,22.03
2022-11-12T23:06:58.288Z,21.20
2022-11-12T23:09:01.860Z,22.30
2022-11-12T23:11:05.374Z,18.07
2022-11-12T23:13:08.165Z,19.07
2022-11-12T23:15:12.709Z,16.07
2022-11-12T23:17:15.521Z,19.20
2022-11-12T23:19:18.343Z,17.57
2022-11-12T23:21:22.918Z,24.10
2022-11-12T23:23:25.802Z,29.07
2022-11-12T23:25:28.639Z,24.53
2022-11-12T23:27:31.484Z,25.07
2022-11-12T23:29:34.278Z,22.20
2022-11-12T23:31:39.016Z,19.77
2022-11-12T23:33:45.424Z,15.70
2022-11-12T23:35:48.282Z,14.90
2022-11-12T23:37:51.085Z,14.97
2022-11-12T23:39:53.838Z,16.50
2022-11-12T23:41:56.623Z,17.13
2022-11-12T23:43:59.812Z,20.00
2022-11-12T23:46:02.809Z,17.47
2022-11-12T23:48:07.319Z,18.03
2022-11-12T23:50:10.469Z,16.63
2022-11-12T23:52:13.311Z,15.33
2022-11-12T23:54:16.115Z,16.00
2022-11-12T23:56:20.039Z,14.90
2022-11-12T23:58:22.851Z,15.60
